Terminal Aerodrome Forecast
Issued by NWS

Home | Current Version | Previous Version | Text Only | Print | Product List | Glossary On
Versions: 1 2 3 4 5 6 7 8 9 10 11 12 13 14 15 16 17 18 19 20 21 22 23 24 25 26 27 28 29 30 31 32 33
000
FTUS45 KGJT 291139
TAFVEL
TAF
KVEL 291139Z 2912/3012 02003KT P6SM VCSH SCT030 OVC060
      TEMPO 2912/2916 3SM -SN BR OVC030
     FM291800 05010KT P6SM VCSH SCT030 OVC060
     FM300000 04005KT P6SM SCT015 OVC040=

USA.gov is the U.S. government's official web portal to all federal, state and local government web resources and services.